19:58
Airports
History
Links
Donate
Help keep this website running!
PayPal
Bitcoin
This page is community maintained. The information is intended for PC simulator navigation or reference.
Always use approved charts for navigation.
ETHN
NIEDERSTETTEN
NIEDERSTETTEN (ETHN)
Niederstetten, Baden-Wurttemberg, Germany (97996)
(C)
Lat/Lng:49° 23' 30.6" N / 9° 57' 29.4" E
49.391834 / 9.958167
Elevation:1536'ft / 468mMSL
ID / ICAO:ETHN
Runways:1
Longest:07-25
Asphalt 998m / 3,274ft
Controlled:Yes
METAR19:20 GMT 2017-12-12
Altimeter: 29.97
Visibility: 6.2 statute miles
Wind: 6 knots (from 240°)
Temp: 0°c / 32°f
Humidity: %

METAR: ETHN 121920Z 24006KT 9999 FEW030 00/M03 Q1015 BLU+

(Powered by phpweather)
Airport Radio Frequencies
Tower: 122.1
Approach: 123.3, 135.6, 139.3
Nearby VORs <50NM
Nearby NDBs
Runway 07 / 25
Dimensions:997.8 x 29.9m 3274' x 98'ft
Surface:Asphalt
Edge Lights:High intensity
Runway 07 [A]Runway 25 [B]
Heading:074°TH 254°TH
Lat:
Lng:
49° 23' 26.4"N
9° 57' 5.4"E
49° 23' 34.8"N
9° 57' 53.4"E
ALS:MALS
User Notes and Comments
49° 23' 30.6" N / 9° 57' 29.4" E
Distance To
Airport ID:
Nearby Airports
(U) Rothenburg ob der Tauber 11.7 NM
EDFR E 90°
(U) Ingelfingen Buehlhof 14.4 NM
EDGI WSW 250°
(U) SCHWABISCH HALL 20.5 NM
EDTY SSW 202°
(U) Wuerzburg Schenkenturm 29.6 NM
EDFW N 354°
(U) Neustadt Aisch 30.9 NM
EDQN ENE 64°
(U) Mosbach Lohrbach 37.6 NM
EDGM W 271°
(C) Backnang-Heiningen 39.7 NM
EDSH SW 214°
VFR Chart
Flight Planning at SkyVector.com